Saturday, May 18, 2024 (20:30 UTC)
OPMET DATA
 
Terminal Aerodrome Forecast (TAF) and METAR
TAFs are issued by Aviation Meteorological Office, for Zayed - Abu Dhabi (OMAA), Al Bateen (OMAD), Al Ain (OMAL), Dubai (OMDB), Al Maktoum (OMDW), Sharjah (OMSJ), Ras Al Khaimah (OMRK) and Fujairah (OMFJ) airports. These TAFs are issued every 6 hours and are valid for a 30 hour period. METARs (Aviation Routine Weather Reports) are updated hourly.
Show ICAO codes
Select OPMET type:        SEARCH   PRINT
Aviation Meteorology - National Center of Meteorology (NCM)
Telephone: +971 2 5757346 / 5053676
Email: metweb@adiamet.gov.ae
Website: www.avmet.ae
METAR OMAA 182000Z 30011KT CAVOK 30/25 Q1005 NOSIG=
METAR OMAD 182000Z 31008KT CAVOK 31/22 Q1005 NOSIG=
METAR OMAL 182000Z 03005KT CAVOK 31/12 Q1007 NOSIG=
METAR OMDB 182000Z 28006KT CAVOK 33/18 Q1005 NOSIG=
METAR OMDW 182000Z 29008KT CAVOK 30/21 Q1006 NOSIG=
METAR OMFJ 182000Z 29016KT CAVOK 36/11 Q1003 A2964=
METAR OMSJ 182000Z 36002KT CAVOK 30/17 Q1005 NOSIG=
METAR OMRK 182000Z 23004KT CAVOK 28/17 Q1005 A2970=
METAR OTBD 182000Z AUTO 32010KT 290V350 CAVOK 31/08 Q1007 NOSIG=
METAR OTHH 182000Z AUTO 32016KT CAVOK 30/11 Q1007 NOSIG=
METAR OBBI 182000Z 31010KT 9000 NSC 29/15 Q1007 NOSIG=
METAR OEDF 182000Z 28005KT CAVOK 27/07 Q1008 NOSIG=
METAR OEDR 182000Z VRB04KT CAVOK 28/06 Q1007=
METAR OEJN 182000Z 28004KT CAVOK 33/20 Q1006 NOSIG=
METAR OEMA 182000Z 08009KT CAVOK 35/M02 Q1013 NOSIG=
METAR OEPA 182000Z 36004KT CAVOK 29/03 Q1012 NOSIG=
METAR OERF 182000Z 14005KT CAVOK 26/00 Q1013 NOSIG=
METAR OERK 182000Z 35004KT CAVOK 28/M03 Q1015 NOSIG=
METAR OERR 182000Z 15009KT CAVOK 28/01 Q1012 NOSIG=
METAR OERY NIL=
METAR OESH 182000Z 03005KT CAVOK 33/07 Q1013 NOSIG=
METAR OETB 182000Z 34010KT CAVOK 31/M01 Q1015 NOSIG=
METAR OETF 182000Z 18005KT 9999 FEW030 26/07 Q1020 NOSIG=
METAR OETR 182000Z 30010KT 9999 FEW040 28/M01 Q1016 NOSIG=
METAR OEWD 182000Z 09012KT CAVOK 33/M02 Q1012=
METAR OEWJ 182000Z 32004KT CAVOK 29/19 Q1008 NOSIG=
METAR OEYN 182000Z 33007KT CAVOK 36/07 Q1003 NOSIG=
METAR OKKK 182000Z 36009KT CAVOK 32/08 Q1009 NOSIG=
METAR OOMS 181950Z VRB02KT CAVOK 34/15 Q1003 NOSIG=
METAR OOSA 181950Z 23005KT 9999 FEW025 30/25 Q1009 NOSIG=
METAR OYSN NIL=
METAR OYAA 182000Z 07011KT 9999 FEW020 31/27 Q1008 NOSIG=
 
Saturday, May 18, 2024 (20:30 UTC)